Time;durP1;ratioP1;P1;durP2;ratioP2;P2;SDS_P1;SDS_P2;PMS_P1;PMS_P2;Temp;Humidity;BMP_temperature;BMP_pressure;BME280_temperature;BME280_humidity;BME280_pressure;Samples;Min_cycle;Max_cycle;Signal;HPM_P1;HPM_P2
2023/04/28 00:00:39;;;;;;;;;;;2.30;56.00;;;;;;4136021;28;19944;-87
2023/04/28 00:02:39;;;;;;;;;;;2.20;56.00;;;;;;4134709;28;20574;-87
2023/04/28 00:04:40;;;;;;;;;;;2.20;56.10;;;;;;4139399;28;19925;-86
2023/04/28 00:06:44;;;;;;;;;;;2.20;56.10;;;;;;4123355;28;19913;-87
2023/04/28 00:08:44;;;;;;;;;;;2.20;56.20;;;;;;4153140;28;19960;-87
2023/04/28 00:10:45;;;;;;;;;;;2.10;56.20;;;;;;4121441;28;19915;-87
2023/04/28 00:12:46;;;;;;;;;;;2.10;56.10;;;;;;4118575;28;19918;-87
2023/04/28 00:14:46;;;;;;;;;;;2.10;56.30;;;;;;4138054;28;20444;-87
2023/04/28 00:16:48;;;;;;;;;;;2.00;56.20;;;;;;4120853;28;19914;-87
2023/04/28 00:18:48;;;;;;;;;;;2.00;56.30;;;;;;4137738;28;19914;-87
2023/04/28 00:20:49;;;;;;;;;;;2.00;56.20;;;;;;4131518;28;19921;-87
2023/04/28 00:22:49;;;;;;;;;;;2.00;56.10;;;;;;4129752;28;19948;-86
2023/04/28 00:24:50;;;;;;;;;;;1.90;56.40;;;;;;4120974;28;19918;-87
2023/04/28 00:26:51;;;;;;;;;;;1.90;56.50;;;;;;4137198;28;20399;-87
2023/04/28 00:28:53;;;;;;;;;;;1.80;56.30;;;;;;4123657;28;20147;-87
2023/04/28 00:30:54;;;;;;;;;;;1.80;56.20;;;;;;4122686;28;19972;-87
2023/04/28 00:32:55;;;;;;;;;;;1.90;56.20;;;;;;4119235;28;19918;-87
2023/04/28 00:34:56;;;;;;;;;;;1.90;56.00;;;;;;4120334;28;19917;-86
2023/04/28 00:37:10;;;;;;;;;;;1.80;56.10;;;;;;4118911;28;19922;-87
2023/04/28 00:39:30;;;;;;;;;;;1.70;56.00;;;;;;4134920;28;19921;-87
2023/04/28 00:41:35;;;;;;;;;;;1.70;56.20;;;;;;4136007;28;19925;-88
2023/04/28 00:43:56;;;;;;;;;;;1.70;56.40;;;;;;4148353;28;19921;-87
2023/04/28 00:46:25;;;;;;;;;;;1.70;56.50;;;;;;4129544;28;19924;-87
2023/04/28 00:48:26;;;;;;;;;;;1.70;56.30;;;;;;4138637;28;19910;-87
2023/04/28 00:50:30;;;;;;;;;;;1.60;56.30;;;;;;4142668;28;19971;-87
2023/04/28 00:52:34;;;;;;;;;;;1.60;56.30;;;;;;4121238;28;19931;-88
2023/04/28 00:54:35;;;;;;;;;;;1.60;56.40;;;;;;4126502;28;20467;-87
2023/04/28 00:56:35;;;;;;;;;;;1.60;56.40;;;;;;4136688;28;21347;-87
2023/04/28 00:58:36;;;;;;;;;;;1.60;56.50;;;;;;4136764;28;19925;-87
2023/04/28 01:00:38;;;;;;;;;;;1.50;56.50;;;;;;4124031;28;19918;-86
2023/04/28 01:02:38;;;;;;;;;;;1.50;56.50;;;;;;4139931;28;19909;-87
2023/04/28 01:04:39;;;;;;;;;;;1.50;56.50;;;;;;4120106;28;19918;-86
2023/04/28 01:06:43;;;;;;;;;;;1.50;56.60;;;;;;4138858;28;19925;-88
2023/04/28 01:08:46;;;;;;;;;;;1.50;56.80;;;;;;4135947;28;20125;-87
2023/04/28 01:10:47;;;;;;;;;;;1.50;56.80;;;;;;4136336;28;19979;-86
2023/04/28 01:12:48;;;;;;;;;;;1.40;57.20;;;;;;4118542;28;19918;-87
2023/04/28 01:15:04;;;;;;;;;;;1.50;57.20;;;;;;4115122;28;20012;-87
2023/04/28 01:17:17;;;;;;;;;;;1.50;57.10;;;;;;4134652;28;20439;-86
2023/04/28 01:19:21;;;;;;;;;;;1.40;56.90;;;;;;4118335;28;19929;-87
2023/04/28 01:21:29;;;;;;;;;;;1.40;56.90;;;;;;4121317;28;19948;-86
2023/04/28 01:23:30;;;;;;;;;;;1.40;56.90;;;;;;4127507;28;19917;-87
2023/04/28 01:25:30;;;;;;;;;;;1.40;57.10;;;;;;4136206;28;19928;-86
2023/04/28 01:27:31;;;;;;;;;;;1.40;57.10;;;;;;4115730;28;20860;-86
2023/04/28 01:29:32;;;;;;;;;;;1.30;57.10;;;;;;4129842;28;19926;-86
2023/04/28 01:31:32;;;;;;;;;;;1.30;57.70;;;;;;4137081;28;19936;-86
2023/04/28 01:33:33;;;;;;;;;;;1.30;57.10;;;;;;4120851;28;20407;-86
2023/04/28 01:35:34;;;;;;;;;;;1.30;57.10;;;;;;4134744;28;20030;-86
2023/04/28 01:37:34;;;;;;;;;;;1.30;57.00;;;;;;4135796;28;19960;-85
2023/04/28 01:39:35;;;;;;;;;;;1.20;57.00;;;;;;4136543;28;19976;-87
2023/04/28 01:41:36;;;;;;;;;;;1.20;57.00;;;;;;4122584;28;20195;-86
2023/04/28 01:43:37;;;;;;;;;;;1.20;57.10;;;;;;4140495;28;19991;-85
2023/04/28 01:45:40;;;;;;;;;;;1.20;57.20;;;;;;4120429;28;19930;-86
2023/04/28 01:47:41;;;;;;;;;;;1.20;57.20;;;;;;4137244;28;19913;-88
2023/04/28 01:50:01;;;;;;;;;;;1.20;57.40;;;;;;4133809;28;19961;-85
2023/04/28 01:52:02;;;;;;;;;;;1.20;57.40;;;;;;4133307;28;19913;-86
2023/04/28 01:54:03;;;;;;;;;;;1.20;57.30;;;;;;4136908;28;19918;-86
2023/04/28 01:56:03;;;;;;;;;;;1.30;57.40;;;;;;4136907;28;19921;-86
2023/04/28 01:58:04;;;;;;;;;;;1.20;57.50;;;;;;4140397;28;19925;-86
2023/04/28 02:00:05;;;;;;;;;;;1.10;57.60;;;;;;4142076;28;20525;-85
2023/04/28 02:02:06;;;;;;;;;;;1.20;57.70;;;;;;4145769;28;20409;-86
2023/04/28 02:04:06;;;;;;;;;;;1.20;57.60;;;;;;4139882;28;19961;-86
2023/04/28 02:06:07;;;;;;;;;;;1.10;57.50;;;;;;4140206;28;19921;-86
2023/04/28 02:08:07;;;;;;;;;;;1.10;57.60;;;;;;4144145;28;19913;-85
2023/04/28 02:10:11;;;;;;;;;;;1.20;57.60;;;;;;4143392;28;20298;-85
2023/04/28 02:12:12;;;;;;;;;;;1.20;57.60;;;;;;4143788;28;20575;-85
2023/04/28 02:14:12;;;;;;;;;;;1.20;57.50;;;;;;4142049;28;19961;-85
2023/04/28 02:16:13;;;;;;;;;;;1.20;57.60;;;;;;4143512;28;19918;-85
2023/04/28 02:18:13;;;;;;;;;;;1.20;57.60;;;;;;4145523;28;19938;-85
2023/04/28 02:20:14;;;;;;;;;;;1.20;57.60;;;;;;4141293;28;19918;-85
2023/04/28 02:22:15;;;;;;;;;;;1.20;57.70;;;;;;4144074;28;19924;-86
2023/04/28 02:24:15;;;;;;;;;;;1.20;57.80;;;;;;4144620;28;19925;-85
2023/04/28 02:26:16;;;;;;;;;;;1.20;57.80;;;;;;4150774;28;19914;-87
2023/04/28 02:28:16;;;;;;;;;;;1.20;57.80;;;;;;4145168;28;20227;-87
2023/04/28 02:30:17;;;;;;;;;;;1.20;57.90;;;;;;4139377;28;19921;-86
2023/04/28 02:32:17;;;;;;;;;;;1.20;57.90;;;;;;4144110;28;19917;-86
2023/04/28 02:34:18;;;;;;;;;;;1.20;57.90;;;;;;4143687;28;19917;-86
2023/04/28 02:36:18;;;;;;;;;;;1.20;57.90;;;;;;4144688;28;19922;-85
2023/04/28 02:38:19;;;;;;;;;;;1.20;57.90;;;;;;4158960;28;19985;-86
2023/04/28 02:40:19;;;;;;;;;;;1.20;58.00;;;;;;4165212;28;19906;-87
2023/04/28 02:42:20;;;;;;;;;;;1.20;58.00;;;;;;4167334;28;19901;-86
2023/04/28 02:44:21;;;;;;;;;;;1.20;58.10;;;;;;4163542;28;19912;-87
2023/04/28 02:46:21;;;;;;;;;;;1.30;58.10;;;;;;4170207;28;19928;-86
2023/04/28 02:48:23;;;;;;;;;;;1.30;58.20;;;;;;4165282;28;19917;-87
2023/04/28 02:50:23;;;;;;;;;;;1.30;58.20;;;;;;4161166;28;19914;-86
2023/04/28 02:52:55;;;;;;;;;;;1.30;58.10;;;;;;4143788;28;20016;-86
2023/04/28 02:54:56;;;;;;;;;;;1.30;58.10;;;;;;4123288;28;19922;-85
2023/04/28 02:56:57;;;;;;;;;;;1.30;58.30;;;;;;4142258;28;20423;-85
2023/04/28 02:58:57;;;;;;;;;;;1.40;58.40;;;;;;4143119;28;19932;-85
2023/04/28 03:01:00;;;;;;;;;;;1.40;58.40;;;;;;4142403;28;19967;-85
2023/04/28 03:03:04;;;;;;;;;;;1.20;58.30;;;;;;4125167;28;19913;-86
2023/04/28 03:05:05;;;;;;;;;;;1.40;58.40;;;;;;4143164;28;19918;-85
2023/04/28 03:07:10;;;;;;;;;;;1.30;58.30;;;;;;4141305;28;19991;-86
2023/04/28 03:09:11;;;;;;;;;;;1.40;58.50;;;;;;4136707;28;19960;-86
2023/04/28 03:11:12;;;;;;;;;;;1.30;58.40;;;;;;4138143;28;20077;-85
2023/04/28 03:13:12;;;;;;;;;;;1.30;59.00;;;;;;4154289;28;20141;-86
2023/04/28 03:15:12;;;;;;;;;;;1.30;58.40;;;;;;4138396;28;19933;-86
2023/04/28 03:17:13;;;;;;;;;;;1.20;58.40;;;;;;4141891;28;19913;-87
2023/04/28 03:19:13;;;;;;;;;;;1.20;58.40;;;;;;4126730;28;19936;-85
2023/04/28 03:21:14;;;;;;;;;;;1.20;58.40;;;;;;4121642;28;19976;-86
2023/04/28 03:23:14;;;;;;;;;;;1.30;58.50;;;;;;4138942;28;19914;-87
2023/04/28 03:25:15;;;;;;;;;;;1.20;58.40;;;;;;4139250;28;20040;-86
2023/04/28 03:27:16;;;;;;;;;;;1.20;58.40;;;;;;4140832;28;20041;-86
2023/04/28 03:29:16;;;;;;;;;;;1.20;58.50;;;;;;4122971;28;19933;-85
2023/04/28 03:31:17;;;;;;;;;;;1.20;58.50;;;;;;4135845;28;19957;-86
2023/04/28 03:33:17;;;;;;;;;;;1.20;58.50;;;;;;4135814;28;19921;-85
2023/04/28 03:35:18;;;;;;;;;;;1.20;58.50;;;;;;4137145;28;19921;-86
2023/04/28 03:37:18;;;;;;;;;;;1.20;58.50;;;;;;4142858;28;19924;-86
2023/04/28 03:39:19;;;;;;;;;;;1.20;58.40;;;;;;4140181;28;19924;-86
2023/04/28 03:41:19;;;;;;;;;;;1.20;58.40;;;;;;4123036;28;19918;-86
2023/04/28 03:43:20;;;;;;;;;;;1.20;58.30;;;;;;4119315;28;19914;-85
2023/04/28 03:45:20;;;;;;;;;;;1.20;58.00;;;;;;4136019;28;19917;-86
2023/04/28 03:47:21;;;;;;;;;;;1.20;58.20;;;;;;4139734;28;20012;-86
2023/04/28 03:49:21;;;;;;;;;;;1.20;58.30;;;;;;4139913;28;19918;-88
2023/04/28 03:51:22;;;;;;;;;;;1.10;58.40;;;;;;4153061;28;19921;-86
2023/04/28 03:53:23;;;;;;;;;;;1.10;58.50;;;;;;4140044;28;20509;-86
2023/04/28 03:55:24;;;;;;;;;;;1.10;58.50;;;;;;4143772;28;19928;-86
2023/04/28 03:57:25;;;;;;;;;;;1.10;58.60;;;;;;4123432;28;19922;-86
2023/04/28 03:59:26;;;;;;;;;;;1.10;58.60;;;;;;4138870;28;20420;-86
2023/04/28 04:01:27;;;;;;;;;;;1.20;58.50;;;;;;4127445;28;20249;-86
2023/04/28 04:03:27;;;;;;;;;;;1.10;58.60;;;;;;4145181;28;19997;-86
2023/04/28 04:05:28;;;;;;;;;;;1.10;58.60;;;;;;4139480;28;19918;-86
2023/04/28 04:07:29;;;;;;;;;;;1.10;58.60;;;;;;4156302;28;20059;-86
2023/04/28 04:09:29;;;;;;;;;;;1.10;58.70;;;;;;4143252;28;19913;-86
2023/04/28 04:11:30;;;;;;;;;;;1.10;58.70;;;;;;4141446;28;19972;-86
2023/04/28 04:13:31;;;;;;;;;;;1.10;58.60;;;;;;4127551;28;19961;-86
2023/04/28 04:15:31;;;;;;;;;;;1.10;58.50;;;;;;4144227;28;20009;-86
2023/04/28 04:17:32;;;;;;;;;;;1.10;58.50;;;;;;4141920;28;19960;-85
2023/04/28 04:19:32;;;;;;;;;;;1.10;58.60;;;;;;4140006;28;19972;-86
2023/04/28 04:21:33;;;;;;;;;;;1.10;58.70;;;;;;4139104;28;20826;-86
2023/04/28 04:23:33;;;;;;;;;;;1.10;58.90;;;;;;4138163;28;19924;-86
2023/04/28 04:25:34;;;;;;;;;;;1.10;59.00;;;;;;4142531;28;19924;-86
2023/04/28 04:27:35;;;;;;;;;;;1.10;59.10;;;;;;4147448;28;20468;-86
2023/04/28 04:29:36;;;;;;;;;;;1.10;59.20;;;;;;4119765;28;19928;-86
2023/04/28 04:31:36;;;;;;;;;;;1.10;59.20;;;;;;4136422;28;19953;-86
2023/04/28 04:33:37;;;;;;;;;;;1.10;59.30;;;;;;4135254;28;20055;-86
2023/04/28 04:35:38;;;;;;;;;;;1.10;59.20;;;;;;4125337;28;19932;-86
2023/04/28 04:37:38;;;;;;;;;;;1.20;59.40;;;;;;4137891;28;19918;-86
2023/04/28 04:39:39;;;;;;;;;;;1.20;59.40;;;;;;4126241;28;20435;-86
2023/04/28 04:41:41;;;;;;;;;;;1.20;59.50;;;;;;4139709;28;19917;-86
2023/04/28 04:43:41;;;;;;;;;;;1.20;59.60;;;;;;4138349;28;20035;-86
2023/04/28 04:45:42;;;;;;;;;;;1.20;59.60;;;;;;4128522;28;19918;-87
2023/04/28 04:47:43;;;;;;;;;;;1.30;59.80;;;;;;4140848;28;20159;-86
2023/04/28 04:49:53;;;;;;;;;;;1.30;59.90;;;;;;4123900;28;19922;-86
2023/04/28 04:51:54;;;;;;;;;;;1.30;60.10;;;;;;4125138;28;20395;-86
2023/04/28 04:53:55;;;;;;;;;;;1.30;60.40;;;;;;4121874;28;19918;-86
2023/04/28 04:55:59;;;;;;;;;;;1.40;60.50;;;;;;4127058;28;19957;-86
2023/04/28 04:58:00;;;;;;;;;;;1.50;60.60;;;;;;4136762;28;19941;-86
2023/04/28 05:00:01;;;;;;;;;;;1.50;61.20;;;;;;4138023;28;19929;-86
2023/04/28 05:02:02;;;;;;;;;;;1.50;60.80;;;;;;4154555;28;19917;-86
2023/04/28 05:04:02;;;;;;;;;;;1.60;60.90;;;;;;4136272;28;19921;-87
2023/04/28 05:06:03;;;;;;;;;;;1.60;60.70;;;;;;4138874;28;19941;-86
2023/04/28 05:08:04;;;;;;;;;;;1.70;61.70;;;;;;4137066;28;19914;-85
2023/04/28 05:10:06;;;;;;;;;;;1.80;61.00;;;;;;4136686;28;20510;-86
2023/04/28 05:12:07;;;;;;;;;;;1.80;61.10;;;;;;4138843;28;19921;-85
2023/04/28 05:14:07;;;;;;;;;;;1.90;61.20;;;;;;4129553;28;20024;-87
2023/04/28 05:16:08;;;;;;;;;;;1.90;61.10;;;;;;4136993;28;19928;-87
2023/04/28 05:18:10;;;;;;;;;;;2.10;61.30;;;;;;4140838;28;19918;-87
2023/04/28 05:20:13;;;;;;;;;;;2.10;61.60;;;;;;4140189;28;20364;-87
2023/04/28 05:22:14;;;;;;;;;;;2.10;61.60;;;;;;4141056;28;19987;-88
2023/04/28 05:24:15;;;;;;;;;;;2.30;61.70;;;;;;4136007;28;19913;-87
2023/04/28 05:26:15;;;;;;;;;;;2.30;62.10;;;;;;4136978;28;19920;-87
2023/04/28 05:28:16;;;;;;;;;;;2.40;62.10;;;;;;4125143;28;19914;-87
2023/04/28 05:30:17;;;;;;;;;;;2.40;61.70;;;;;;4136856;28;19917;-87
2023/04/28 05:32:17;;;;;;;;;;;2.50;61.60;;;;;;4140709;28;19918;-87
2023/04/28 05:34:18;;;;;;;;;;;2.50;61.60;;;;;;4120982;28;19914;-87
2023/04/28 05:36:18;;;;;;;;;;;2.60;61.40;;;;;;4135801;28;19972;-87
2023/04/28 05:38:19;;;;;;;;;;;2.70;61.70;;;;;;4122651;28;19914;-89
2023/04/28 05:40:20;;;;;;;;;;;2.70;61.70;;;;;;4140979;28;19976;-87
2023/04/28 05:42:20;;;;;;;;;;;2.80;61.80;;;;;;4137208;28;19918;-87
2023/04/28 05:44:21;;;;;;;;;;;2.80;62.00;;;;;;4137658;28;19956;-88
2023/04/28 05:46:22;;;;;;;;;;;2.90;61.90;;;;;;4135728;28;19925;-87
2023/04/28 05:48:22;;;;;;;;;;;3.00;61.80;;;;;;4143131;28;19995;-87
2023/04/28 05:50:23;;;;;;;;;;;3.10;61.80;;;;;;4142744;28;19914;-87
2023/04/28 05:52:23;;;;;;;;;;;3.10;61.80;;;;;;4135064;28;19984;-88
2023/04/28 05:54:24;;;;;;;;;;;3.20;61.90;;;;;;4144536;28;19914;-87
2023/04/28 05:56:25;;;;;;;;;;;3.10;61.70;;;;;;4127865;28;19921;-87
2023/04/28 05:58:26;;;;;;;;;;;3.20;61.90;;;;;;4123346;28;19918;-87
2023/04/28 06:00:26;;;;;;;;;;;3.30;62.90;;;;;;4137067;28;19920;-87
2023/04/28 06:02:32;;;;;;;;;;;3.40;62.80;;;;;;4138677;28;19976;-87
2023/04/28 06:04:33;;;;;;;;;;;3.40;67.10;;;;;;4123799;28;19922;-87
2023/04/28 06:06:34;;;;;;;;;;;3.50;68.00;;;;;;4138086;28;19941;-87
2023/04/28 06:08:34;;;;;;;;;;;3.50;68.50;;;;;;4140155;28;19984;-87
2023/04/28 06:10:35;;;;;;;;;;;3.50;69.20;;;;;;4141637;28;19920;-88
2023/04/28 06:12:36;;;;;;;;;;;3.60;69.60;;;;;;4138980;28;19921;-88
2023/04/28 06:14:36;;;;;;;;;;;3.70;71.60;;;;;;4156422;28;19922;-90
2023/04/28 06:16:37;;;;;;;;;;;3.80;72.50;;;;;;4147010;28;19926;-88
2023/04/28 06:18:38;;;;;;;;;;;3.90;74.30;;;;;;4137559;28;19921;-87
2023/04/28 06:20:38;;;;;;;;;;;4.00;75.40;;;;;;4125383;28;19988;-88
2023/04/28 06:22:40;;;;;;;;;;;4.10;76.10;;;;;;4141174;28;20011;-87
2023/04/28 06:24:41;;;;;;;;;;;4.30;76.50;;;;;;4137060;28;20315;-87
2023/04/28 06:26:42;;;;;;;;;;;4.50;76.30;;;;;;4137510;28;20501;-88
2023/04/28 06:28:42;;;;;;;;;;;4.50;76.70;;;;;;4143603;28;19909;-87
2023/04/28 06:30:43;;;;;;;;;;;4.70;76.70;;;;;;4128319;28;19918;-88
2023/04/28 06:32:47;;;;;;;;;;;4.80;76.90;;;;;;4122348;28;19914;-87
2023/04/28 06:34:47;;;;;;;;;;;5.00;76.50;;;;;;4138794;28;19992;-87
2023/04/28 06:36:48;;;;;;;;;;;5.10;76.50;;;;;;4139239;28;19913;-87
2023/04/28 06:38:48;;;;;;;;;;;5.30;76.70;;;;;;4137818;28;19924;-87
2023/04/28 06:40:49;;;;;;;;;;;5.30;75.50;;;;;;4125340;28;19925;-88
2023/04/28 06:43:05;;;;;;;;;;;5.50;75.20;;;;;;4138239;28;19921;-88
2023/04/28 06:45:17;;;;;;;;;;;5.80;75.00;;;;;;4139708;28;19920;-89
2023/04/28 06:47:18;;;;;;;;;;;5.80;74.60;;;;;;4135328;28;19917;-87
2023/04/28 06:49:25;;;;;;;;;;;5.90;74.90;;;;;;4127934;28;19996;-90
2023/04/28 06:51:31;;;;;;;;;;;6.00;74.40;;;;;;4140448;28;19929;-87
2023/04/28 06:54:00;;;;;;;;;;;6.30;73.60;;;;;;4141583;28;19909;-87
2023/04/28 06:56:12;;;;;;;;;;;6.30;72.70;;;;;;4130056;28;19928;-88
2023/04/28 06:58:34;;;;;;;;;;;6.30;71.80;;;;;;4125852;28;20896;-89
2023/04/28 07:00:35;;;;;;;;;;;6.50;70.90;;;;;;4155577;28;19962;-89
2023/04/28 07:03:02;;;;;;;;;;;6.70;70.90;;;;;;4121492;28;20431;-87
2023/04/28 07:05:03;;;;;;;;;;;6.60;69.90;;;;;;4156370;28;19917;-88
2023/04/28 07:07:07;;;;;;;;;;;6.80;69.60;;;;;;4143085;28;19914;-86
2023/04/28 07:09:25;;;;;;;;;;;7.10;69.40;;;;;;4139779;28;20949;-87
2023/04/28 07:11:26;;;;;;;;;;;7.10;69.30;;;;;;4126100;28;19914;-89
2023/04/28 07:13:36;;;;;;;;;;;7.30;68.50;;;;;;4127567;28;19953;-90
2023/04/28 07:15:55;;;;;;;;;;;7.20;67.00;;;;;;4148609;28;19989;-88
2023/04/28 07:17:55;;;;;;;;;;;7.30;65.90;;;;;;4138481;28;20386;-88
2023/04/28 07:19:59;;;;;;;;;;;7.30;65.90;;;;;;4123834;28;19957;-86
2023/04/28 07:22:00;;;;;;;;;;;7.40;65.90;;;;;;4130141;28;19913;-87
2023/04/28 07:24:22;;;;;;;;;;;7.60;65.90;;;;;;4141943;28;19914;-87
2023/04/28 07:26:28;;;;;;;;;;;7.70;66.00;;;;;;4147422;28;19910;-89
2023/04/28 07:29:02;;;;;;;;;;;7.50;65.40;;;;;;4139579;28;20359;-88
2023/04/28 07:31:11;;;;;;;;;;;7.50;65.30;;;;;;4157575;28;20235;-87
2023/04/28 07:33:19;;;;;;;;;;;7.50;65.00;;;;;;4130266;28;19918;-87
2023/04/28 07:35:26;;;;;;;;;;;7.50;64.70;;;;;;4127461;28;19922;-88
2023/04/28 07:37:26;;;;;;;;;;;7.50;65.00;;;;;;4146893;28;19909;-89
2023/04/28 07:39:38;;;;;;;;;;;7.60;65.20;;;;;;4144433;28;20023;-87
2023/04/28 07:41:48;;;;;;;;;;;7.60;65.10;;;;;;4150470;28;19920;-88
2023/04/28 07:43:51;;;;;;;;;;;7.50;64.10;;;;;;4126172;28;19943;-88
2023/04/28 07:45:57;;;;;;;;;;;7.70;64.80;;;;;;4123612;28;20004;-90
2023/04/28 07:48:01;;;;;;;;;;;7.80;65.00;;;;;;4143663;28;21365;-90
2023/04/28 07:50:05;;;;;;;;;;;7.80;64.80;;;;;;4144616;28;19921;-88
2023/04/28 07:52:08;;;;;;;;;;;7.90;65.00;;;;;;4158429;28;20003;-86
2023/04/28 07:54:15;;;;;;;;;;;8.00;65.10;;;;;;4128025;28;20460;-87
2023/04/28 07:56:20;;;;;;;;;;;8.20;65.30;;;;;;4150359;28;19933;-87
2023/04/28 07:58:24;;;;;;;;;;;8.20;65.10;;;;;;4124865;28;20475;-86
2023/04/28 08:00:40;;;;;;;;;;;8.40;65.10;;;;;;4140259;28;19918;-87
2023/04/28 08:02:44;;;;;;;;;;;8.50;65.00;;;;;;4147674;28;19976;-87
2023/04/28 08:04:45;;;;;;;;;;;8.50;64.70;;;;;;4142661;28;19897;-88
2023/04/28 08:06:48;;;;;;;;;;;8.70;64.60;;;;;;4141905;28;19918;-87
2023/04/28 08:08:49;;;;;;;;;;;8.80;64.40;;;;;;4147625;28;19909;-88
2023/04/28 08:10:51;;;;;;;;;;;8.80;63.50;;;;;;4149080;28;19931;-87
2023/04/28 08:12:54;;;;;;;;;;;8.90;62.80;;;;;;4139409;28;19902;-88
2023/04/28 08:14:55;;;;;;;;;;;9.10;63.10;;;;;;4129358;28;19932;-85
2023/04/28 08:16:56;;;;;;;;;;;9.20;63.10;;;;;;4142901;28;19951;-88
2023/04/28 08:18:58;;;;;;;;;;;9.20;61.00;;;;;;4141266;28;20415;-88
2023/04/28 08:20:58;;;;;;;;;;;9.10;59.80;;;;;;4144256;28;19913;-87
2023/04/28 08:22:59;;;;;;;;;;;9.20;60.00;;;;;;4149154;28;19910;-87
2023/04/28 08:25:00;;;;;;;;;;;9.10;59.40;;;;;;4143511;28;19985;-88
2023/04/28 08:27:04;;;;;;;;;;;9.30;60.10;;;;;;4129716;28;19917;-89
2023/04/28 08:29:05;;;;;;;;;;;9.20;60.00;;;;;;4139661;28;19913;-87
2023/04/28 08:31:06;;;;;;;;;;;9.10;59.30;;;;;;4141410;28;19963;-90
2023/04/28 08:33:06;;;;;;;;;;;9.20;59.50;;;;;;4142807;28;19914;-88
2023/04/28 08:35:07;;;;;;;;;;;9.20;60.10;;;;;;4143682;28;19937;-86
2023/04/28 08:37:08;;;;;;;;;;;9.20;59.00;;;;;;4130358;28;19914;-87
2023/04/28 08:39:09;;;;;;;;;;;9.30;58.50;;;;;;4131584;28;20465;-88
2023/04/28 08:41:12;;;;;;;;;;;9.30;58.70;;;;;;4145304;28;19960;-86
2023/04/28 08:43:13;;;;;;;;;;;9.30;57.90;;;;;;4130308;28;20387;-87
2023/04/28 08:45:14;;;;;;;;;;;9.50;58.00;;;;;;4126769;28;19909;-86
2023/04/28 08:47:34;;;;;;;;;;;9.60;58.40;;;;;;4144167;28;19914;-87
2023/04/28 08:49:38;;;;;;;;;;;9.50;58.60;;;;;;4123503;28;20454;-88
2023/04/28 08:51:43;;;;;;;;;;;9.50;57.60;;;;;;4155971;28;19917;-90
2023/04/28 08:54:00;;;;;;;;;;;9.50;57.50;;;;;;4151817;28;20410;-89
2023/04/28 08:56:08;;;;;;;;;;;9.70;58.10;;;;;;4142557;28;19957;-87
2023/04/28 08:58:08;;;;;;;;;;;9.60;57.70;;;;;;4156105;28;19913;-87
2023/04/28 09:00:09;;;;;;;;;;;9.80;58.10;;;;;;4137355;28;19920;-85
2023/04/28 09:02:13;;;;;;;;;;;9.70;57.50;;;;;;4143206;28;20488;-88
2023/04/28 09:04:19;;;;;;;;;;;9.80;57.00;;;;;;4125811;28;20368;-88
2023/04/28 09:06:21;;;;;;;;;;;9.70;57.20;;;;;;4126466;28;19918;-88
2023/04/28 09:08:25;;;;;;;;;;;9.80;57.60;;;;;;4124099;28;19933;-89
2023/04/28 09:10:26;;;;;;;;;;;9.50;56.30;;;;;;4139737;28;19917;-88
2023/04/28 09:12:41;;;;;;;;;;;9.70;57.20;;;;;;4141189;28;19917;-85
2023/04/28 09:14:42;;;;;;;;;;;9.80;57.00;;;;;;4139195;28;19917;-91
2023/04/28 09:16:52;;;;;;;;;;;9.50;56.70;;;;;;4124390;28;20435;-89
2023/04/28 09:18:58;;;;;;;;;;;9.60;57.10;;;;;;4139716;28;19935;-86
2023/04/28 09:21:02;;;;;;;;;;;9.60;56.70;;;;;;4137793;28;19918;-89
2023/04/28 09:23:13;;;;;;;;;;;9.60;56.80;;;;;;4153915;28;19913;-87
2023/04/28 09:25:21;;;;;;;;;;;9.70;57.20;;;;;;4149601;28;20553;-89
2023/04/28 09:27:25;;;;;;;;;;;9.70;56.60;;;;;;4141707;28;19920;-89
2023/04/28 09:29:26;;;;;;;;;;;9.80;57.00;;;;;;4127207;28;20319;-89
2023/04/28 09:31:27;;;;;;;;;;;9.80;56.70;;;;;;4126262;28;19910;-88
2023/04/28 09:33:28;;;;;;;;;;;9.90;57.30;;;;;;4137728;28;19979;-88
2023/04/28 09:35:47;;;;;;;;;;;10.00;57.30;;;;;;4135274;28;19917;-88
2023/04/28 09:37:56;;;;;;;;;;;9.90;56.60;;;;;;4126928;28;19921;-88
2023/04/28 09:40:04;;;;;;;;;;;10.00;57.20;;;;;;4140480;28;19924;-87
2023/04/28 09:42:04;;;;;;;;;;;10.00;57.60;;;;;;4139201;28;19928;-87
2023/04/28 09:44:09;;;;;;;;;;;10.10;57.50;;;;;;4136459;28;19944;-89
2023/04/28 09:46:09;;;;;;;;;;;10.10;56.80;;;;;;4141043;28;19952;-87
2023/04/28 09:48:10;;;;;;;;;;;10.20;57.20;;;;;;4144545;28;19913;-87
2023/04/28 09:50:15;;;;;;;;;;;10.20;56.90;;;;;;4139907;28;20075;-87
2023/04/28 09:52:16;;;;;;;;;;;10.30;57.10;;;;;;4124875;28;19957;-86
2023/04/28 09:54:20;;;;;;;;;;;10.30;56.70;;;;;;4138430;28;20011;-87
2023/04/28 09:56:24;;;;;;;;;;;10.30;56.80;;;;;;4124192;28;19922;-88
2023/04/28 09:58:28;;;;;;;;;;;10.40;57.00;;;;;;4124865;28;19925;-85
2023/04/28 10:00:33;;;;;;;;;;;10.40;57.80;;;;;;4136520;28;19956;-87
2023/04/28 10:02:37;;;;;;;;;;;10.50;57.60;;;;;;4120147;28;20301;-86
2023/04/28 10:04:38;;;;;;;;;;;10.60;57.80;;;;;;4119775;28;19918;-87
2023/04/28 10:06:43;;;;;;;;;;;10.60;57.50;;;;;;4153639;28;19925;-87
2023/04/28 10:08:47;;;;;;;;;;;10.60;57.20;;;;;;4140462;28;19945;-87
2023/04/28 10:10:48;;;;;;;;;;;10.60;57.20;;;;;;4138964;28;19918;-86
2023/04/28 10:12:50;;;;;;;;;;;10.60;57.10;;;;;;4140282;28;19929;-88
2023/04/28 10:14:53;;;;;;;;;;;10.50;57.20;;;;;;4154084;28;19913;-89
2023/04/28 10:16:55;;;;;;;;;;;10.40;57.00;;;;;;4138175;28;19980;-88
2023/04/28 10:19:00;;;;;;;;;;;10.40;56.70;;;;;;4144914;28;19956;-88
2023/04/28 10:21:06;;;;;;;;;;;10.50;57.70;;;;;;4144086;28;20548;-89
2023/04/28 10:23:18;;;;;;;;;;;10.50;58.00;;;;;;4138616;28;20295;-88
2023/04/28 10:25:34;;;;;;;;;;;10.50;58.20;;;;;;4132208;28;19913;-86
2023/04/28 10:27:35;;;;;;;;;;;10.50;58.30;;;;;;4152918;28;20382;-88
2023/04/28 10:29:36;;;;;;;;;;;10.60;58.40;;;;;;4143087;28;19960;-88
2023/04/28 10:31:37;;;;;;;;;;;10.60;58.20;;;;;;4140487;28;19913;-89
2023/04/28 10:33:38;;;;;;;;;;;10.70;58.50;;;;;;4138789;28;20364;-88
2023/04/28 10:35:41;;;;;;;;;;;10.70;58.40;;;;;;4142438;28;19922;-88
2023/04/28 10:38:01;;;;;;;;;;;10.60;58.00;;;;;;4141747;28;20016;-91
2023/04/28 10:40:20;;;;;;;;;;;10.60;58.20;;;;;;4137307;28;20437;-89
2023/04/28 10:42:41;;;;;;;;;;;10.70;59.70;;;;;;4144805;28;19921;-88
2023/04/28 10:44:41;;;;;;;;;;;10.70;58.50;;;;;;4138243;28;20248;-88
2023/04/28 10:47:08;;;;;;;;;;;10.70;58.30;;;;;;4140942;28;19967;-87
2023/04/28 10:49:08;;;;;;;;;;;10.90;58.60;;;;;;4154101;28;19971;-88
2023/04/28 10:51:11;;;;;;;;;;;11.00;58.40;;;;;;4139450;28;19936;-89
2023/04/28 10:53:12;;;;;;;;;;;11.10;58.00;;;;;;4135797;28;20333;-86
2023/04/28 10:55:31;;;;;;;;;;;11.20;57.70;;;;;;4139787;28;19960;-87
2023/04/28 10:57:40;;;;;;;;;;;11.30;57.70;;;;;;4138465;28;19918;-87
2023/04/28 10:59:41;;;;;;;;;;;11.30;57.10;;;;;;4143695;28;19924;-85
2023/04/28 11:01:44;;;;;;;;;;;11.40;56.90;;;;;;4129066;28;19910;-85
2023/04/28 11:03:48;;;;;;;;;;;11.40;54.20;;;;;;4141655;28;19923;-85
2023/04/28 11:06:12;;;;;;;;;;;11.30;54.60;;;;;;4141692;28;19992;-86
2023/04/28 11:08:25;;;;;;;;;;;11.20;54.80;;;;;;4123008;28;19989;-85
2023/04/28 11:10:48;;;;;;;;;;;11.10;55.00;;;;;;4142219;28;19968;-88
2023/04/28 11:13:07;;;;;;;;;;;11.10;55.20;;;;;;4126702;28;19969;-86
2023/04/28 11:15:12;;;;;;;;;;;11.10;55.00;;;;;;4159220;28;19928;-89
2023/04/28 11:17:15;;;;;;;;;;;11.10;56.90;;;;;;4151808;28;19917;-89
2023/04/28 11:19:19;;;;;;;;;;;11.00;55.40;;;;;;4128322;28;19914;-89
2023/04/28 11:21:38;;;;;;;;;;;11.00;54.90;;;;;;4146156;28;19945;-88
2023/04/28 11:23:38;;;;;;;;;;;11.00;55.10;;;;;;4146605;28;19913;-89
2023/04/28 11:26:05;;;;;;;;;;;10.90;55.70;;;;;;4142983;28;20261;-86
2023/04/28 11:28:07;;;;;;;;;;;10.90;55.70;;;;;;4143830;28;19916;-87
2023/04/28 11:30:21;;;;;;;;;;;11.00;56.40;;;;;;4144536;28;19928;-87
2023/04/28 11:35:23;;;;;;;;;;;10.90;56.80;;;;;;4118787;28;20224;-86
2023/04/28 11:40:20;;;;;;;;;;;10.60;56.80;;;;;;4142821;28;20426;-86
2023/04/28 11:42:21;;;;;;;;;;;10.60;58.00;;;;;;4141904;28;19909;-88
2023/04/28 12:02:12;;;;;;;;;;;10.90;54.60;;;;;;4314015;23;19936;-88
2023/04/28 12:06:23;;;;;;;;;;;11.00;54.80;;;;;;3785057;26;20322;-88
2023/04/28 12:08:36;;;;;;;;;;;10.90;54.90;;;;;;4126685;28;19922;-88
2023/04/28 12:11:17;;;;;;;;;;;10.90;55.30;;;;;;4139823;28;19918;-90
2023/04/28 12:13:17;;;;;;;;;;;10.80;55.00;;;;;;4148617;28;19924;-88
2023/04/28 12:15:18;;;;;;;;;;;10.90;54.70;;;;;;4135191;28;20303;-88
2023/04/28 12:17:23;;;;;;;;;;;10.90;55.20;;;;;;4121264;28;20403;-87
2023/04/28 12:19:24;;;;;;;;;;;10.90;55.10;;;;;;4139630;28;19914;-87
2023/04/28 12:21:25;;;;;;;;;;;10.70;53.40;;;;;;4126308;28;20045;-88
2023/04/28 12:23:32;;;;;;;;;;;11.00;54.50;;;;;;4129360;28;19910;-87
2023/04/28 12:25:42;;;;;;;;;;;11.00;54.80;;;;;;4143413;28;19925;-87
2023/04/28 12:28:02;;;;;;;;;;;11.00;53.80;;;;;;4121861;28;20036;-86
2023/04/28 12:30:22;;;;;;;;;;;11.00;54.70;;;;;;4119203;28;19918;-87
2023/04/28 12:32:39;;;;;;;;;;;11.00;54.90;;;;;;4138292;28;19921;-87
2023/04/28 12:34:40;;;;;;;;;;;10.90;53.80;;;;;;4128339;28;19947;-87